sensor_id;sensor_type;location;lat;lon;timestamp;pressure;altitude;pressure_sealevel;temperature;humidity
63907;BME280;50075;49.484;11.238;2022-10-17T00:01:21;98437.13;;;20.96;100.00
63907;BME280;50075;49.484;11.238;2022-10-17T00:03:46;98443.44;;;20.71;100.00
63907;BME280;50075;49.484;11.238;2022-10-17T00:06:13;98440.91;;;20.21;100.00
63907;BME280;50075;49.484;11.238;2022-10-17T00:08:40;98442.28;;;20.03;100.00
63907;BME280;50075;49.484;11.238;2022-10-17T00:11:17;98452.53;;;19.83;100.00
63907;BME280;50075;49.484;11.238;2022-10-17T00:13:44;98453.31;;;20.45;100.00
63907;BME280;50075;49.484;11.238;2022-10-17T00:16:10;98448.28;;;20.42;100.00
63907;BME280;50075;49.484;11.238;2022-10-17T00:18:35;98451.13;;;20.39;100.00
63907;BME280;50075;49.484;11.238;2022-10-17T00:21:01;98456.38;;;20.28;100.00
63907;BME280;50075;49.484;11.238;2022-10-17T00:23:26;98455.06;;;19.72;100.00
63907;BME280;50075;49.484;11.238;2022-10-17T00:26:00;98455.19;;;20.91;100.00
63907;BME280;50075;49.484;11.238;2022-10-17T00:28:26;98463.81;;;21.17;100.00
63907;BME280;50075;49.484;11.238;2022-10-17T00:30:56;98468.59;;;20.41;100.00
63907;BME280;50075;49.484;11.238;2022-10-17T00:33:22;98459.19;;;20.13;100.00
63907;BME280;50075;49.484;11.238;2022-10-17T00:35:47;98464.50;;;19.76;100.00
63907;BME280;50075;49.484;11.238;2022-10-17T00:38:12;98459.50;;;19.59;100.00
63907;BME280;50075;49.484;11.238;2022-10-17T00:40:38;98458.78;;;20.07;100.00
63907;BME280;50075;49.484;11.238;2022-10-17T00:43:03;98463.91;;;19.97;100.00
63907;BME280;50075;49.484;11.238;2022-10-17T00:45:29;98465.81;;;19.95;100.00
63907;BME280;50075;49.484;11.238;2022-10-17T00:48:06;98458.53;;;20.22;100.00
63907;BME280;50075;49.484;11.238;2022-10-17T00:50:35;98463.53;;;19.64;100.00
63907;BME280;50075;49.484;11.238;2022-10-17T00:53:03;98463.53;;;19.77;100.00
63907;BME280;50075;49.484;11.238;2022-10-17T00:55:36;98463.13;;;19.58;100.00
63907;BME280;50075;49.484;11.238;2022-10-17T00:58:04;98460.03;;;19.64;100.00
63907;BME280;50075;49.484;11.238;2022-10-17T01:00:30;98456.31;;;19.67;100.00
63907;BME280;50075;49.484;11.238;2022-10-17T01:02:55;98468.25;;;19.98;100.00
63907;BME280;50075;49.484;11.238;2022-10-17T01:05:21;98468.63;;;19.80;100.00
63907;BME280;50075;49.484;11.238;2022-10-17T01:07:48;98467.88;;;19.65;100.00
63907;BME280;50075;49.484;11.238;2022-10-17T01:10:15;98468.66;;;20.29;100.00
63907;BME280;50075;49.484;11.238;2022-10-17T01:15:11;98469.63;;;20.03;100.00
63907;BME280;50075;49.484;11.238;2022-10-17T01:18:11;98469.06;;;19.74;100.00
63907;BME280;50075;49.484;11.238;2022-10-17T01:34:54;98477.88;;;19.99;100.00
63907;BME280;50075;49.484;11.238;2022-10-17T01:37:25;98470.13;;;19.20;100.00
63907;BME280;50075;49.484;11.238;2022-10-17T01:39:59;98477.00;;;19.36;100.00
63907;BME280;50075;49.484;11.238;2022-10-17T01:42:36;98477.31;;;19.44;100.00
63907;BME280;50075;49.484;11.238;2022-10-17T01:45:22;98470.78;;;20.23;100.00
63907;BME280;50075;49.484;11.238;2022-10-17T01:47:51;98466.31;;;19.76;100.00
63907;BME280;50075;49.484;11.238;2022-10-17T01:50:23;98464.41;;;19.52;100.00
63907;BME280;50075;49.484;11.238;2022-10-17T01:52:53;98463.78;;;19.49;100.00
63907;BME280;50075;49.484;11.238;2022-10-17T01:55:25;98462.63;;;20.51;100.00
63907;BME280;50075;49.484;11.238;2022-10-17T01:57:56;98472.50;;;20.25;100.00
63907;BME280;50075;49.484;11.238;2022-10-17T02:00:26;98467.81;;;19.41;100.00
63907;BME280;50075;49.484;11.238;2022-10-17T02:02:58;98466.94;;;18.90;100.00
63907;BME280;50075;49.484;11.238;2022-10-17T02:05:28;98465.03;;;19.81;100.00
63907;BME280;50075;49.484;11.238;2022-10-17T02:07:54;98466.34;;;19.24;100.00
63907;BME280;50075;49.484;11.238;2022-10-17T02:10:40;98465.25;;;19.27;100.00
63907;BME280;50075;49.484;11.238;2022-10-17T02:13:29;98454.66;;;19.53;100.00
63907;BME280;50075;49.484;11.238;2022-10-17T02:24:32;98459.00;;;18.49;100.00
63907;BME280;50075;49.484;11.238;2022-10-17T02:27:05;98459.03;;;19.28;100.00
63907;BME280;50075;49.484;11.238;2022-10-17T02:29:48;98456.56;;;19.76;100.00
63907;BME280;50075;49.484;11.238;2022-10-17T02:32:23;98451.06;;;19.54;100.00
63907;BME280;50075;49.484;11.238;2022-10-17T02:34:54;98459.13;;;18.88;100.00
63907;BME280;50075;49.484;11.238;2022-10-17T02:37:24;98460.28;;;18.84;100.00
63907;BME280;50075;49.484;11.238;2022-10-17T02:39:54;98454.69;;;19.01;100.00
63907;BME280;50075;49.484;11.238;2022-10-17T02:42:22;98454.31;;;19.70;100.00
63907;BME280;50075;49.484;11.238;2022-10-17T02:44:49;98459.72;;;19.81;100.00
63907;BME280;50075;49.484;11.238;2022-10-17T02:47:26;98456.69;;;19.49;100.00
63907;BME280;50075;49.484;11.238;2022-10-17T02:49:54;98463.16;;;19.06;100.00
63907;BME280;50075;49.484;11.238;2022-10-17T02:54:53;98455.50;;;19.40;100.00
63907;BME280;50075;49.484;11.238;2022-10-17T02:59:56;98461.41;;;19.70;100.00
63907;BME280;50075;49.484;11.238;2022-10-17T03:02:23;98465.13;;;18.50;100.00
63907;BME280;50075;49.484;11.238;2022-10-17T03:04:48;98468.97;;;19.12;100.00
63907;BME280;50075;49.484;11.238;2022-10-17T03:07:14;98468.00;;;19.51;100.00
63907;BME280;50075;49.484;11.238;2022-10-17T03:09:39;98470.31;;;18.24;100.00
63907;BME280;50075;49.484;11.238;2022-10-17T03:12:04;98478.78;;;19.35;100.00
63907;BME280;50075;49.484;11.238;2022-10-17T03:14:30;98479.22;;;19.42;100.00
63907;BME280;50075;49.484;11.238;2022-10-17T03:16:55;98469.88;;;19.62;100.00
63907;BME280;50075;49.484;11.238;2022-10-17T03:19:20;98471.16;;;19.69;100.00
63907;BME280;50075;49.484;11.238;2022-10-17T03:21:46;98475.19;;;19.62;100.00
63907;BME280;50075;49.484;11.238;2022-10-17T03:24:11;98475.13;;;20.00;100.00
63907;BME280;50075;49.484;11.238;2022-10-17T03:26:36;98481.22;;;19.38;100.00
63907;BME280;50075;49.484;11.238;2022-10-17T03:29:02;98485.47;;;19.02;100.00
63907;BME280;50075;49.484;11.238;2022-10-17T03:31:27;98482.72;;;19.17;100.00
63907;BME280;50075;49.484;11.238;2022-10-17T03:33:53;98486.69;;;19.87;100.00
63907;BME280;50075;49.484;11.238;2022-10-17T03:36:19;98488.88;;;19.17;100.00
63907;BME280;50075;49.484;11.238;2022-10-17T03:38:45;98501.00;;;19.58;100.00
63907;BME280;50075;49.484;11.238;2022-10-17T03:41:10;98498.56;;;19.17;100.00
63907;BME280;50075;49.484;11.238;2022-10-17T03:43:36;98492.44;;;19.55;100.00
63907;BME280;50075;49.484;11.238;2022-10-17T03:46:02;98516.22;;;19.03;100.00
63907;BME280;50075;49.484;11.238;2022-10-17T03:48:29;98505.13;;;19.75;100.00
63907;BME280;50075;49.484;11.238;2022-10-17T03:51:06;98513.16;;;18.15;100.00
63907;BME280;50075;49.484;11.238;2022-10-17T03:53:32;98516.84;;;18.94;100.00
63907;BME280;50075;49.484;11.238;2022-10-17T03:56:18;98519.44;;;19.86;100.00
63907;BME280;50075;49.484;11.238;2022-10-17T03:58:44;98519.97;;;19.52;100.00
63907;BME280;50075;49.484;11.238;2022-10-17T04:01:11;98525.16;;;19.28;100.00
63907;BME280;50075;49.484;11.238;2022-10-17T04:03:37;98523.75;;;18.69;100.00
63907;BME280;50075;49.484;11.238;2022-10-17T04:06:03;98529.38;;;19.43;100.00
63907;BME280;50075;49.484;11.238;2022-10-17T04:08:29;98533.66;;;18.66;100.00
63907;BME280;50075;49.484;11.238;2022-10-17T04:10:59;98535.16;;;18.01;100.00
63907;BME280;50075;49.484;11.238;2022-10-17T04:13:25;98533.91;;;18.76;100.00
63907;BME280;50075;49.484;11.238;2022-10-17T04:15:54;98532.75;;;18.80;100.00
63907;BME280;50075;49.484;11.238;2022-10-17T04:18:20;98533.19;;;19.39;100.00
63907;BME280;50075;49.484;11.238;2022-10-17T04:20:45;98537.31;;;19.18;100.00
63907;BME280;50075;49.484;11.238;2022-10-17T04:23:11;98534.97;;;19.39;100.00
63907;BME280;50075;49.484;11.238;2022-10-17T04:25:36;98536.03;;;18.56;100.00
63907;BME280;50075;49.484;11.238;2022-10-17T04:28:01;98534.59;;;18.92;100.00
63907;BME280;50075;49.484;11.238;2022-10-17T04:30:27;98536.34;;;19.44;100.00
63907;BME280;50075;49.484;11.238;2022-10-17T04:32:53;98537.88;;;18.68;100.00
63907;BME280;50075;49.484;11.238;2022-10-17T04:35:18;98533.53;;;18.95;100.00
63907;BME280;50075;49.484;11.238;2022-10-17T04:37:43;98534.38;;;18.82;100.00
63907;BME280;50075;49.484;11.238;2022-10-17T04:40:09;98541.00;;;19.02;100.00
63907;BME280;50075;49.484;11.238;2022-10-17T04:42:34;98538.84;;;18.67;100.00
63907;BME280;50075;49.484;11.238;2022-10-17T04:45:00;98528.53;;;18.50;100.00
63907;BME280;50075;49.484;11.238;2022-10-17T04:47:25;98530.84;;;19.22;100.00
63907;BME280;50075;49.484;11.238;2022-10-17T04:49:50;98540.06;;;19.29;100.00
63907;BME280;50075;49.484;11.238;2022-10-17T04:52:15;98536.53;;;18.48;100.00
63907;BME280;50075;49.484;11.238;2022-10-17T04:54:41;98536.81;;;18.58;100.00
63907;BME280;50075;49.484;11.238;2022-10-17T04:57:06;98543.97;;;19.49;100.00
63907;BME280;50075;49.484;11.238;2022-10-17T04:59:31;98545.69;;;19.63;100.00
63907;BME280;50075;49.484;11.238;2022-10-17T05:01:57;98538.09;;;18.65;100.00
63907;BME280;50075;49.484;11.238;2022-10-17T05:04:22;98538.47;;;19.26;100.00
63907;BME280;50075;49.484;11.238;2022-10-17T05:06:47;98538.50;;;19.78;100.00
63907;BME280;50075;49.484;11.238;2022-10-17T05:09:13;98535.09;;;19.37;100.00
63907;BME280;50075;49.484;11.238;2022-10-17T05:11:38;98542.84;;;19.00;100.00
63907;BME280;50075;49.484;11.238;2022-10-17T05:14:03;98548.28;;;18.72;100.00
63907;BME280;50075;49.484;11.238;2022-10-17T05:16:29;98538.19;;;18.91;100.00
63907;BME280;50075;49.484;11.238;2022-10-17T05:18:56;98543.34;;;19.45;100.00
63907;BME280;50075;49.484;11.238;2022-10-17T05:21:23;98552.91;;;18.41;100.00
63907;BME280;50075;49.484;11.238;2022-10-17T05:23:49;98544.34;;;18.64;100.00
63907;BME280;50075;49.484;11.238;2022-10-17T05:26:15;98544.13;;;18.67;100.00
63907;BME280;50075;49.484;11.238;2022-10-17T05:28:41;98551.66;;;18.74;100.00
63907;BME280;50075;49.484;11.238;2022-10-17T05:31:07;98547.53;;;18.97;100.00
63907;BME280;50075;49.484;11.238;2022-10-17T05:33:33;98550.28;;;18.95;100.00
63907;BME280;50075;49.484;11.238;2022-10-17T05:35:59;98552.22;;;19.19;100.00
63907;BME280;50075;49.484;11.238;2022-10-17T05:38:25;98558.09;;;19.10;100.00
63907;BME280;50075;49.484;11.238;2022-10-17T05:40:51;98562.00;;;18.64;100.00
63907;BME280;50075;49.484;11.238;2022-10-17T05:43:16;98561.84;;;19.20;100.00
63907;BME280;50075;49.484;11.238;2022-10-17T05:45:41;98561.13;;;18.63;100.00
63907;BME280;50075;49.484;11.238;2022-10-17T05:48:07;98569.78;;;18.65;100.00
63907;BME280;50075;49.484;11.238;2022-10-17T05:50:33;98574.91;;;18.54;100.00
63907;BME280;50075;49.484;11.238;2022-10-17T05:52:59;98574.88;;;18.41;100.00
63907;BME280;50075;49.484;11.238;2022-10-17T05:55:24;98576.00;;;18.79;100.00
63907;BME280;50075;49.484;11.238;2022-10-17T05:57:49;98572.97;;;18.71;100.00
63907;BME280;50075;49.484;11.238;2022-10-17T06:00:17;98573.69;;;18.33;100.00
63907;BME280;50075;49.484;11.238;2022-10-17T06:02:43;98577.34;;;18.99;100.00
63907;BME280;50075;49.484;11.238;2022-10-17T06:05:10;98585.66;;;18.93;100.00
63907;BME280;50075;49.484;11.238;2022-10-17T06:07:35;98587.66;;;18.89;100.00
63907;BME280;50075;49.484;11.238;2022-10-17T06:10:00;98581.69;;;19.78;100.00
63907;BME280;50075;49.484;11.238;2022-10-17T06:12:26;98585.69;;;19.45;100.00
63907;BME280;50075;49.484;11.238;2022-10-17T06:14:51;98582.22;;;20.46;100.00
63907;BME280;50075;49.484;11.238;2022-10-17T06:17:16;98592.63;;;20.23;100.00
63907;BME280;50075;49.484;11.238;2022-10-17T06:19:42;98594.34;;;19.48;100.00
63907;BME280;50075;49.484;11.238;2022-10-17T06:22:09;98594.88;;;20.30;100.00
63907;BME280;50075;49.484;11.238;2022-10-17T06:24:34;98605.75;;;20.75;100.00
63907;BME280;50075;49.484;11.238;2022-10-17T06:26:59;98596.63;;;20.79;100.00
63907;BME280;50075;49.484;11.238;2022-10-17T06:29:25;98597.13;;;20.84;100.00
63907;BME280;50075;49.484;11.238;2022-10-17T06:31:50;98597.94;;;20.23;100.00
63907;BME280;50075;49.484;11.238;2022-10-17T06:34:15;98608.69;;;20.46;100.00
63907;BME280;50075;49.484;11.238;2022-10-17T06:36:41;98619.00;;;21.59;100.00
63907;BME280;50075;49.484;11.238;2022-10-17T06:39:06;98617.84;;;21.03;100.00
63907;BME280;50075;49.484;11.238;2022-10-17T06:41:32;98628.19;;;21.06;100.00
63907;BME280;50075;49.484;11.238;2022-10-17T06:43:57;98623.94;;;20.92;100.00
63907;BME280;50075;49.484;11.238;2022-10-17T06:46:22;98625.94;;;21.13;100.00
63907;BME280;50075;49.484;11.238;2022-10-17T06:48:51;98626.16;;;21.69;100.00
63907;BME280;50075;49.484;11.238;2022-10-17T06:51:16;98619.97;;;20.37;100.00
63907;BME280;50075;49.484;11.238;2022-10-17T06:53:41;98624.44;;;21.57;100.00
63907;BME280;50075;49.484;11.238;2022-10-17T06:56:08;98624.03;;;20.04;100.00
63907;BME280;50075;49.484;11.238;2022-10-17T06:58:36;98632.97;;;20.90;100.00
63907;BME280;50075;49.484;11.238;2022-10-17T07:01:07;98642.09;;;21.34;100.00
63907;BME280;50075;49.484;11.238;2022-10-17T07:03:33;98637.47;;;21.01;100.00
63907;BME280;50075;49.484;11.238;2022-10-17T07:05:58;98642.50;;;21.87;100.00
63907;BME280;50075;49.484;11.238;2022-10-17T07:08:24;98647.59;;;22.36;100.00
63907;BME280;50075;49.484;11.238;2022-10-17T07:10:50;98645.53;;;24.22;100.00
63907;BME280;50075;49.484;11.238;2022-10-17T07:13:16;98658.78;;;26.48;100.00
63907;BME280;50075;49.484;11.238;2022-10-17T07:15:42;98661.06;;;26.70;100.00
63907;BME280;50075;49.484;11.238;2022-10-17T07:18:07;98666.69;;;27.85;100.00
63907;BME280;50075;49.484;11.238;2022-10-17T07:20:33;98667.66;;;27.76;100.00
63907;BME280;50075;49.484;11.238;2022-10-17T07:22:59;98673.31;;;28.51;100.00
63907;BME280;50075;49.484;11.238;2022-10-17T07:25:24;98675.56;;;29.31;100.00
63907;BME280;50075;49.484;11.238;2022-10-17T07:27:50;98674.25;;;29.35;100.00
63907;BME280;50075;49.484;11.238;2022-10-17T07:30:16;98683.31;;;29.59;96.32
63907;BME280;50075;49.484;11.238;2022-10-17T07:32:42;98678.38;;;30.84;89.00
63907;BME280;50075;49.484;11.238;2022-10-17T07:35:09;98684.38;;;31.03;78.36
63907;BME280;50075;49.484;11.238;2022-10-17T07:37:36;98682.53;;;31.73;72.25
63907;BME280;50075;49.484;11.238;2022-10-17T07:40:02;98677.19;;;30.79;67.71
63907;BME280;50075;49.484;11.238;2022-10-17T07:42:28;98672.59;;;31.88;65.99
63907;BME280;50075;49.484;11.238;2022-10-17T07:44:54;98671.44;;;32.05;67.77
63907;BME280;50075;49.484;11.238;2022-10-17T07:47:20;98675.38;;;32.77;63.05
63907;BME280;50075;49.484;11.238;2022-10-17T07:49:45;98685.50;;;33.70;57.93
63907;BME280;50075;49.484;11.238;2022-10-17T07:52:12;98686.91;;;34.92;53.71
63907;BME280;50075;49.484;11.238;2022-10-17T07:54:37;98682.03;;;33.33;56.86
63907;BME280;50075;49.484;11.238;2022-10-17T07:57:03;98678.53;;;30.43;64.15
63907;BME280;50075;49.484;11.238;2022-10-17T07:59:28;98669.69;;;29.19;73.72
63907;BME280;50075;49.484;11.238;2022-10-17T08:01:55;98667.22;;;29.75;74.25
63907;BME280;50075;49.484;11.238;2022-10-17T08:04:20;98666.66;;;29.14;75.92
63907;BME280;50075;49.484;11.238;2022-10-17T08:06:45;98669.91;;;30.56;70.68
63907;BME280;50075;49.484;11.238;2022-10-17T08:09:11;98670.47;;;30.27;75.18
63907;BME280;50075;49.484;11.238;2022-10-17T08:11:36;98673.88;;;30.21;71.96
63907;BME280;50075;49.484;11.238;2022-10-17T08:14:02;98685.56;;;30.52;70.50
63907;BME280;50075;49.484;11.238;2022-10-17T08:16:28;98680.22;;;31.15;70.80
63907;BME280;50075;49.484;11.238;2022-10-17T08:18:53;98684.72;;;33.76;57.88
63907;BME280;50075;49.484;11.238;2022-10-17T08:21:18;98688.44;;;35.14;53.53
63907;BME280;50075;49.484;11.238;2022-10-17T08:23:44;98693.31;;;34.78;51.03
63907;BME280;50075;49.484;11.238;2022-10-17T08:26:10;98683.50;;;36.32;48.50
63907;BME280;50075;49.484;11.238;2022-10-17T08:28:38;98679.00;;;33.06;54.61
63907;BME280;50075;49.484;11.238;2022-10-17T08:31:05;98675.63;;;30.53;66.32
63907;BME280;50075;49.484;11.238;2022-10-17T08:33:31;98677.97;;;31.50;66.16
63907;BME280;50075;49.484;11.238;2022-10-17T08:35:58;98683.69;;;31.55;64.45
63907;BME280;50075;49.484;11.238;2022-10-17T08:38:24;98685.16;;;30.72;71.08
63907;BME280;50075;49.484;11.238;2022-10-17T08:40:49;98686.75;;;33.95;57.41
63907;BME280;50075;49.484;11.238;2022-10-17T08:43:30;98675.19;;;32.64;61.97
63907;BME280;50075;49.484;11.238;2022-10-17T08:46:00;98666.00;;;32.95;62.01
63907;BME280;50075;49.484;11.238;2022-10-17T08:48:29;98675.50;;;34.20;54.76
63907;BME280;50075;49.484;11.238;2022-10-17T08:53:49;98671.00;;;32.17;57.52
63907;BME280;50075;49.484;11.238;2022-10-17T08:56:39;98674.38;;;33.36;56.38
63907;BME280;50075;49.484;11.238;2022-10-17T08:59:27;98683.13;;;36.01;49.45
63907;BME280;50075;49.484;11.238;2022-10-17T09:02:02;98671.63;;;34.08;52.84
63907;BME280;50075;49.484;11.238;2022-10-17T09:04:53;98681.47;;;35.94;50.62
63907;BME280;50075;49.484;11.238;2022-10-17T09:07:29;98663.81;;;36.50;47.94
63907;BME280;50075;49.484;11.238;2022-10-17T09:18:11;98661.59;;;35.40;47.89
63907;BME280;50075;49.484;11.238;2022-10-17T09:20:48;98659.69;;;35.27;48.94
63907;BME280;50075;49.484;11.238;2022-10-17T09:23:19;98651.78;;;36.19;48.98
63907;BME280;50075;49.484;11.238;2022-10-17T09:25:49;98654.53;;;34.77;49.07
63907;BME280;50075;49.484;11.238;2022-10-17T09:28:30;98656.34;;;36.32;46.83
63907;BME280;50075;49.484;11.238;2022-10-17T09:31:39;98659.34;;;37.14;42.43
63907;BME280;50075;49.484;11.238;2022-10-17T09:33:59;98651.38;;;36.22;44.00
63907;BME280;50075;49.484;11.238;2022-10-17T09:36:30;98647.09;;;37.36;39.89
63907;BME280;50075;49.484;11.238;2022-10-17T09:38:59;98651.91;;;34.97;46.60
63907;BME280;50075;49.484;11.238;2022-10-17T09:41:40;98648.63;;;36.87;46.02
63907;BME280;50075;49.484;11.238;2022-10-17T09:44:33;98654.44;;;35.05;46.31
63907;BME280;50075;49.484;11.238;2022-10-17T09:49:49;98649.25;;;36.31;43.88
63907;BME280;50075;49.484;11.238;2022-10-17T09:52:16;98651.84;;;33.29;54.99
63907;BME280;50075;49.484;11.238;2022-10-17T09:54:53;98653.94;;;35.70;48.21
63907;BME280;50075;49.484;11.238;2022-10-17T09:57:20;98656.06;;;34.45;49.76
63907;BME280;50075;49.484;11.238;2022-10-17T09:59:54;98661.34;;;33.68;51.77
63907;BME280;50075;49.484;11.238;2022-10-17T10:02:22;98648.16;;;37.35;45.42
63907;BME280;50075;49.484;11.238;2022-10-17T10:05:13;98654.91;;;33.97;51.84
63907;BME280;50075;49.484;11.238;2022-10-17T10:07:57;98664.41;;;34.50;50.77
63907;BME280;50075;49.484;11.238;2022-10-17T10:10:26;98662.59;;;34.22;52.52
63907;BME280;50075;49.484;11.238;2022-10-17T10:13:15;98657.69;;;35.69;49.37
63907;BME280;50075;49.484;11.238;2022-10-17T10:15:44;98656.41;;;35.65;48.42
63907;BME280;50075;49.484;11.238;2022-10-17T10:23:36;98651.56;;;34.65;47.42
63907;BME280;50075;49.484;11.238;2022-10-17T10:26:20;98645.03;;;31.40;53.16
63907;BME280;50075;49.484;11.238;2022-10-17T10:31:50;98641.13;;;32.63;52.32
63907;BME280;50075;49.484;11.238;2022-10-17T10:34:20;98647.66;;;34.26;48.84
63907;BME280;50075;49.484;11.238;2022-10-17T10:39:30;98646.63;;;34.34;46.78
63907;BME280;50075;49.484;11.238;2022-10-17T10:41:58;98640.16;;;34.28;46.74
63907;BME280;50075;49.484;11.238;2022-10-17T10:44:27;98638.63;;;33.41;49.95
63907;BME280;50075;49.484;11.238;2022-10-17T10:49:47;98628.31;;;33.51;48.80
63907;BME280;50075;49.484;11.238;2022-10-17T10:52:33;98624.81;;;32.41;55.51
63907;BME280;50075;49.484;11.238;2022-10-17T10:55:13;98625.88;;;34.54;49.40
63907;BME280;50075;49.484;11.238;2022-10-17T10:57:41;98626.38;;;33.67;49.62
63907;BME280;50075;49.484;11.238;2022-10-17T11:00:15;98634.09;;;34.26;49.86
63907;BME280;50075;49.484;11.238;2022-10-17T11:03:13;98626.00;;;33.27;51.48
63907;BME280;50075;49.484;11.238;2022-10-17T11:08:48;98623.13;;;33.78;52.81
63907;BME280;50075;49.484;11.238;2022-10-17T11:11:18;98616.16;;;33.90;51.53
63907;BME280;50075;49.484;11.238;2022-10-17T11:13:57;98614.38;;;33.26;51.06
63907;BME280;50075;49.484;11.238;2022-10-17T11:16:37;98608.06;;;34.25;49.44
63907;BME280;50075;49.484;11.238;2022-10-17T11:19:20;98606.56;;;33.38;51.49
63907;BME280;50075;49.484;11.238;2022-10-17T11:22:11;98599.59;;;32.85;53.07
63907;BME280;50075;49.484;11.238;2022-10-17T11:24:43;98597.78;;;32.56;54.10
63907;BME280;50075;49.484;11.238;2022-10-17T11:27:12;98590.31;;;31.16;60.40
63907;BME280;50075;49.484;11.238;2022-10-17T11:29:39;98590.41;;;32.14;56.84
63907;BME280;50075;49.484;11.238;2022-10-17T11:32:39;98599.47;;;32.72;55.93
63907;BME280;50075;49.484;11.238;2022-10-17T11:35:15;98597.94;;;32.33;57.40
63907;BME280;50075;49.484;11.238;2022-10-17T11:37:48;98600.94;;;31.70;59.01
63907;BME280;50075;49.484;11.238;2022-10-17T11:40:21;98596.88;;;31.75;58.52
63907;BME280;50075;49.484;11.238;2022-10-17T11:45:24;98597.66;;;32.13;59.57
63907;BME280;50075;49.484;11.238;2022-10-17T11:51:07;98588.69;;;32.27;60.53
63907;BME280;50075;49.484;11.238;2022-10-17T12:01:53;98587.09;;;30.58;64.76
63907;BME280;50075;49.484;11.238;2022-10-17T12:09:58;98590.41;;;31.00;64.36
63907;BME280;50075;49.484;11.238;2022-10-17T12:12:29;98592.09;;;31.01;66.49
63907;BME280;50075;49.484;11.238;2022-10-17T12:18:00;98580.97;;;30.49;68.70
63907;BME280;50075;49.484;11.238;2022-10-17T12:20:36;98580.69;;;30.28;65.06
63907;BME280;50075;49.484;11.238;2022-10-17T12:26:00;98579.78;;;30.44;65.79
63907;BME280;50075;49.484;11.238;2022-10-17T12:38:46;98589.97;;;30.56;64.26
63907;BME280;50075;49.484;11.238;2022-10-17T12:41:12;98588.91;;;30.97;64.38
63907;BME280;50075;49.484;11.238;2022-10-17T12:43:49;98583.91;;;30.86;65.25
63907;BME280;50075;49.484;11.238;2022-10-17T12:49:44;98580.41;;;30.14;67.65
63907;BME280;50075;49.484;11.238;2022-10-17T12:54:41;98584.56;;;31.19;65.54
63907;BME280;50075;49.484;11.238;2022-10-17T12:57:36;98581.91;;;30.09;64.71
63907;BME280;50075;49.484;11.238;2022-10-17T13:00:14;98588.13;;;30.88;63.17
63907;BME280;50075;49.484;11.238;2022-10-17T13:02:41;98578.25;;;30.49;62.50
63907;BME280;50075;49.484;11.238;2022-10-17T13:05:20;98583.28;;;30.52;62.78
63907;BME280;50075;49.484;11.238;2022-10-17T13:07:47;98577.34;;;30.88;62.62
63907;BME280;50075;49.484;11.238;2022-10-17T13:10:22;98579.00;;;30.27;61.91
63907;BME280;50075;49.484;11.238;2022-10-17T13:12:50;98572.66;;;30.59;61.58
63907;BME280;50075;49.484;11.238;2022-10-17T13:15:18;98572.59;;;30.36;63.79
63907;BME280;50075;49.484;11.238;2022-10-17T13:17:54;98570.66;;;30.84;61.49
63907;BME280;50075;49.484;11.238;2022-10-17T13:20:21;98566.69;;;29.85;60.77
63907;BME280;50075;49.484;11.238;2022-10-17T13:22:49;98557.59;;;30.42;60.62
63907;BME280;50075;49.484;11.238;2022-10-17T13:25:17;98568.22;;;30.27;61.31
63907;BME280;50075;49.484;11.238;2022-10-17T13:27:44;98572.75;;;29.87;63.99
63907;BME280;50075;49.484;11.238;2022-10-17T13:30:26;98569.09;;;29.55;63.69
63907;BME280;50075;49.484;11.238;2022-10-17T13:32:52;98567.88;;;30.38;61.02
63907;BME280;50075;49.484;11.238;2022-10-17T13:35:35;98571.97;;;30.17;62.72
63907;BME280;50075;49.484;11.238;2022-10-17T13:38:04;98570.75;;;29.89;62.77
63907;BME280;50075;49.484;11.238;2022-10-17T13:40:39;98579.19;;;29.12;64.97
63907;BME280;50075;49.484;11.238;2022-10-17T13:43:13;98581.50;;;29.89;64.50
63907;BME280;50075;49.484;11.238;2022-10-17T13:46:04;98574.63;;;29.62;65.13
63907;BME280;50075;49.484;11.238;2022-10-17T13:48:31;98581.63;;;29.95;63.15
63907;BME280;50075;49.484;11.238;2022-10-17T13:51:00;98580.56;;;29.16;67.76
63907;BME280;50075;49.484;11.238;2022-10-17T13:53:35;98576.38;;;30.81;63.04
63907;BME280;50075;49.484;11.238;2022-10-17T13:56:22;98578.81;;;29.89;64.71
63907;BME280;50075;49.484;11.238;2022-10-17T13:59:02;98587.66;;;30.06;67.79
63907;BME280;50075;49.484;11.238;2022-10-17T14:01:32;98594.91;;;30.05;68.21
63907;BME280;50075;49.484;11.238;2022-10-17T14:03:58;98590.25;;;29.66;71.29
63907;BME280;50075;49.484;11.238;2022-10-17T14:06:28;98589.38;;;30.78;67.59
63907;BME280;50075;49.484;11.238;2022-10-17T14:09:03;98597.88;;;30.18;67.31
63907;BME280;50075;49.484;11.238;2022-10-17T14:11:40;98605.19;;;30.81;67.63
63907;BME280;50075;49.484;11.238;2022-10-17T14:14:16;98606.78;;;31.21;65.58
63907;BME280;50075;49.484;11.238;2022-10-17T14:16:43;98601.13;;;30.77;66.79
63907;BME280;50075;49.484;11.238;2022-10-17T14:21:53;98615.16;;;31.64;63.86
63907;BME280;50075;49.484;11.238;2022-10-17T14:26:54;98615.56;;;31.15;67.95
63907;BME280;50075;49.484;11.238;2022-10-17T14:29:26;98615.44;;;31.31;65.46
63907;BME280;50075;49.484;11.238;2022-10-17T14:32:01;98613.00;;;30.90;71.11
63907;BME280;50075;49.484;11.238;2022-10-17T14:34:33;98614.63;;;31.54;66.81
63907;BME280;50075;49.484;11.238;2022-10-17T14:37:00;98611.56;;;30.48;71.66
63907;BME280;50075;49.484;11.238;2022-10-17T14:39:26;98619.81;;;30.78;71.17
63907;BME280;50075;49.484;11.238;2022-10-17T14:41:52;98621.19;;;30.43;70.46
63907;BME280;50075;49.484;11.238;2022-10-17T14:44:21;98623.78;;;30.90;70.04
63907;BME280;50075;49.484;11.238;2022-10-17T14:46:51;98621.03;;;30.28;71.45